Weather at Milan Bergamo Airport

Public forecast

Using degrees Celsius for public forecast. Weather courtesy of forecast.io.

Current aviation weather report (METAR) for Milan Bergamo Airport

Retrieved 2020/10/23 07:20 UTC (19 minutes ago):

LIME 230720Z 11004KT 0800 R28/P1500N -RA FG FEW001 OVC003 12/12 Q1021 NOSIG

Aviation forecast (TAF) for Milan Bergamo Airport

Retrieved 2020/10/23 06:00 UTC (2 hours ago):

TAF LIME 230500Z 2306/2406 VRB05KT 6000 BKN030 TEMPO 2306/2316 RA TEMPO 2316/2402 TSRA